createdAt,value
2019-02-10T00:00:25.782Z,411.02
2019-02-10T00:01:25.703Z,410.47
2019-02-10T00:02:25.633Z,409.75
2019-02-10T00:03:25.627Z,410.36
2019-02-10T00:04:25.661Z,410.80
2019-02-10T00:05:25.727Z,410.34
2019-02-10T00:06:25.593Z,410.52
2019-02-10T00:07:25.573Z,410.84
2019-02-10T00:08:25.568Z,411.06
2019-02-10T00:09:25.566Z,411.65
2019-02-10T00:10:25.591Z,410.39
2019-02-10T00:11:25.539Z,410.86
2019-02-10T00:12:25.523Z,410.46
2019-02-10T00:13:25.519Z,411.15
2019-02-10T00:14:25.520Z,410.44
2019-02-10T00:15:25.501Z,411.57
2019-02-10T00:16:25.505Z,410.54
2019-02-10T00:17:25.480Z,411.18
2019-02-10T00:18:25.461Z,409.51
2019-02-10T00:19:25.471Z,410.45
2019-02-10T00:20:25.428Z,410.09
2019-02-10T00:21:25.488Z,411.09
2019-02-10T00:22:25.418Z,410.86
2019-02-10T00:23:25.418Z,410.57
2019-02-10T00:24:25.407Z,410.87
2019-02-10T00:25:25.409Z,410.64
2019-02-10T00:26:25.390Z,410.91
2019-02-10T00:27:25.469Z,410.74
2019-02-10T00:28:25.359Z,410.74
2019-02-10T00:29:25.354Z,411.14
2019-02-10T00:30:25.357Z,411.24
2019-02-10T00:31:25.331Z,411.11
2019-02-10T00:32:25.305Z,411.19
2019-02-10T00:33:25.314Z,410.48
2019-02-10T00:34:25.310Z,411.27
2019-02-10T00:35:25.285Z,410.27
2019-02-10T00:36:32.646Z,410.19
2019-02-10T00:37:26.282Z,411.17
2019-02-10T00:38:25.241Z,411.30
2019-02-10T00:39:25.232Z,410.22
2019-02-10T00:40:25.249Z,411.06
2019-02-10T00:41:25.204Z,409.89
2019-02-10T00:42:25.197Z,410.90
2019-02-10T00:43:25.188Z,410.65
2019-02-10T00:44:25.192Z,411.20
2019-02-10T00:45:25.235Z,411.05
2019-02-10T00:46:25.186Z,411.15
2019-02-10T00:47:25.148Z,411.16
2019-02-10T00:48:25.139Z,409.93
2019-02-10T00:49:25.126Z,410.74
2019-02-10T00:50:25.109Z,411.47
2019-02-10T00:51:25.123Z,410.28
2019-02-10T00:52:25.090Z,410.19
2019-02-10T00:53:25.073Z,410.74
2019-02-10T00:54:25.078Z,410.43
2019-02-10T00:55:25.067Z,410.75
2019-02-10T00:56:25.066Z,410.79
2019-02-10T00:57:25.060Z,409.89
2019-02-10T00:58:25.013Z,410.52
2019-02-10T00:59:25.007Z,409.45
2019-02-10T01:00:25.005Z,410.01
2019-02-10T01:01:25.785Z,410.39
2019-02-10T01:02:25.000Z,410.63
2019-02-10T01:03:24.970Z,410.23
2019-02-10T01:04:24.976Z,410.55
2019-02-10T01:05:24.945Z,410.69
2019-02-10T01:06:24.948Z,410.82
2019-02-10T01:07:24.931Z,410.52
2019-02-10T01:08:24.939Z,411.07
2019-02-10T01:09:24.911Z,411.43
2019-02-10T01:10:24.897Z,410.49
2019-02-10T01:11:24.875Z,411.48
2019-02-10T01:12:24.865Z,411.27
2019-02-10T01:13:24.891Z,411.32
2019-02-10T01:14:24.844Z,411.61
2019-02-10T01:15:24.851Z,410.94
2019-02-10T01:16:24.816Z,411.48
2019-02-10T01:17:24.809Z,411.46
2019-02-10T01:18:24.828Z,411.47
2019-02-10T01:19:24.815Z,410.33
2019-02-10T01:20:24.787Z,411.40
2019-02-10T01:21:24.786Z,410.65
2019-02-10T01:22:24.758Z,411.27
2019-02-10T01:23:24.759Z,411.05
2019-02-10T01:24:24.773Z,409.90
2019-02-10T01:25:24.723Z,410.50
2019-02-10T01:26:24.730Z,410.22
2019-02-10T01:27:24.725Z,410.47
2019-02-10T01:28:24.720Z,410.08
2019-02-10T01:29:24.707Z,410.42
2019-02-10T01:30:24.674Z,411.34
2019-02-10T01:31:24.663Z,409.59
2019-02-10T01:32:24.659Z,409.42
2019-02-10T01:33:24.644Z,409.61
2019-02-10T01:34:24.671Z,410.63
2019-02-10T01:35:24.639Z,410.33
2019-02-10T01:36:24.611Z,410.75
2019-02-10T01:37:24.594Z,410.64
2019-02-10T01:38:24.610Z,410.80
2019-02-10T01:39:24.627Z,410.94
2019-02-10T01:40:24.565Z,409.55
2019-02-10T01:41:24.551Z,409.97
2019-02-10T01:42:24.544Z,410.10
2019-02-10T01:43:24.623Z,410.52
2019-02-10T01:44:24.520Z,410.37
2019-02-10T01:45:24.540Z,409.93
2019-02-10T01:46:24.516Z,410.64
2019-02-10T01:47:24.522Z,410.74
2019-02-10T01:48:24.484Z,410.25
2019-02-10T01:49:24.462Z,411.44
2019-02-10T01:50:24.474Z,411.09
2019-02-10T01:51:24.472Z,410.93
2019-02-10T01:52:24.450Z,410.53
2019-02-10T01:53:24.427Z,410.57
2019-02-10T01:54:24.427Z,410.38
2019-02-10T01:55:24.415Z,410.78
2019-02-10T01:56:24.424Z,410.47
2019-02-10T01:57:24.369Z,409.23
2019-02-10T01:58:24.372Z,410.23
2019-02-10T01:59:24.359Z,409.31
2019-02-10T02:00:24.357Z,409.66
2019-02-10T02:01:24.344Z,409.48
2019-02-10T02:02:24.347Z,410.14
2019-02-10T02:03:24.316Z,410.21
2019-02-10T02:04:24.309Z,410.12
2019-02-10T02:05:24.299Z,410.12
2019-02-10T02:06:24.280Z,410.60
2019-02-10T02:07:24.310Z,410.59
2019-02-10T02:08:24.250Z,410.40
2019-02-10T02:09:24.238Z,409.77
2019-02-10T02:10:24.239Z,409.65
2019-02-10T02:11:24.239Z,409.81
2019-02-10T02:12:24.216Z,409.89
2019-02-10T02:13:24.230Z,410.64
2019-02-10T02:14:24.190Z,410.32
2019-02-10T02:15:24.193Z,410.05
2019-02-10T02:16:24.166Z,411.36
2019-02-10T02:17:24.158Z,409.43
2019-02-10T02:18:24.250Z,411.74
2019-02-10T02:19:24.136Z,411.50
2019-02-10T02:20:24.123Z,410.76
2019-02-10T02:21:24.106Z,410.50
2019-02-10T02:22:24.138Z,409.63
2019-02-10T02:23:24.114Z,411.52
2019-02-10T02:24:24.203Z,411.43
2019-02-10T02:25:24.142Z,410.22
2019-02-10T02:26:24.099Z,411.39
2019-02-10T02:27:24.062Z,411.52
2019-02-10T02:28:24.368Z,411.13
2019-02-10T02:29:25.171Z,410.25
2019-02-10T02:30:24.064Z,410.23
2019-02-10T02:31:24.094Z,410.52
2019-02-10T02:32:24.009Z,411.21
2019-02-10T02:33:23.998Z,410.50
2019-02-10T02:34:23.970Z,410.58
2019-02-10T02:35:23.982Z,410.19
2019-02-10T02:36:23.997Z,411.64
2019-02-10T02:37:24.015Z,410.05
2019-02-10T02:38:23.931Z,411.75
2019-02-10T02:39:23.921Z,410.34
2019-02-10T02:40:23.904Z,410.90
2019-02-10T02:41:23.896Z,410.91
2019-02-10T02:42:23.911Z,410.64
2019-02-10T02:43:23.883Z,409.92
2019-02-10T02:44:23.880Z,411.87
2019-02-10T02:45:23.856Z,411.10
2019-02-10T02:46:23.857Z,409.79
2019-02-10T02:47:23.834Z,411.48
2019-02-10T02:48:23.831Z,412.42
2019-02-10T02:49:23.811Z,411.15
2019-02-10T02:50:23.802Z,410.51
2019-02-10T02:51:23.815Z,410.41
2019-02-10T02:52:23.772Z,410.01
2019-02-10T02:53:23.772Z,412.09
2019-02-10T02:54:23.762Z,410.73
2019-02-10T02:55:23.752Z,412.29
2019-02-10T02:56:23.760Z,412.57
2019-02-10T02:57:23.740Z,411.54
2019-02-10T02:58:23.710Z,410.77
2019-02-10T02:59:23.696Z,410.01
2019-02-10T03:00:23.686Z,410.97
2019-02-10T03:01:23.675Z,411.45
2019-02-10T03:02:23.699Z,410.83
2019-02-10T03:03:23.678Z,411.79
2019-02-10T03:04:23.649Z,411.01
2019-02-10T03:05:23.663Z,410.09
2019-02-10T03:06:23.627Z,409.97
2019-02-10T03:07:23.614Z,409.80
2019-02-10T03:08:23.609Z,411.10
2019-02-10T03:09:23.607Z,410.92
2019-02-10T03:10:23.587Z,411.07
2019-02-10T03:11:23.589Z,411.40
2019-02-10T03:12:23.556Z,411.65
2019-02-10T03:13:23.538Z,411.59
2019-02-10T03:14:23.537Z,411.13
2019-02-10T03:15:23.544Z,410.65
2019-02-10T03:16:23.551Z,411.90
2019-02-10T03:17:23.507Z,411.20
2019-02-10T03:18:23.494Z,411.62
2019-02-10T03:19:23.479Z,411.15
2019-02-10T03:20:23.477Z,410.96
2019-02-10T03:21:23.456Z,411.04
2019-02-10T03:22:23.472Z,411.14
2019-02-10T03:23:23.465Z,410.63
2019-02-10T03:24:23.429Z,411.08
2019-02-10T03:25:23.416Z,410.35
2019-02-10T03:26:23.443Z,409.93
2019-02-10T03:27:23.402Z,411.25
2019-02-10T03:28:23.393Z,411.31
2019-02-10T03:29:23.381Z,409.44
2019-02-10T03:30:23.366Z,410.23
2019-02-10T03:31:23.348Z,411.03
2019-02-10T03:32:23.358Z,409.40
2019-02-10T03:33:23.328Z,410.98
2019-02-10T03:34:23.335Z,410.84
2019-02-10T03:35:23.312Z,411.55
2019-02-10T03:36:23.315Z,411.78
2019-02-10T03:37:27.269Z,410.51
2019-02-10T03:38:23.284Z,411.71
2019-02-10T03:39:23.279Z,411.03
2019-02-10T03:40:23.262Z,411.69
2019-02-10T03:41:23.246Z,410.89
2019-02-10T03:42:23.234Z,411.22
2019-02-10T03:43:23.249Z,410.67
2019-02-10T03:44:23.202Z,410.42
2019-02-10T03:45:23.203Z,411.17
2019-02-10T03:46:23.211Z,410.86
2019-02-10T03:47:23.187Z,410.22
2019-02-10T03:48:23.198Z,410.92
2019-02-10T03:49:23.168Z,411.92
2019-02-10T03:50:23.141Z,411.32
2019-02-10T03:51:23.135Z,411.46
2019-02-10T03:52:23.117Z,411.74
2019-02-10T03:53:23.142Z,410.88
2019-02-10T03:54:23.110Z,411.88
2019-02-10T03:55:23.096Z,409.98
2019-02-10T03:56:23.074Z,410.60
2019-02-10T03:57:23.076Z,410.53
2019-02-10T03:58:23.089Z,411.39
2019-02-10T03:59:23.075Z,410.63
2019-02-10T04:00:23.041Z,410.35
2019-02-10T04:01:23.043Z,410.72
2019-02-10T04:02:23.012Z,412.09
2019-02-10T04:03:23.023Z,410.82
2019-02-10T04:04:23.026Z,411.38
2019-02-10T04:05:22.988Z,410.18
2019-02-10T04:06:22.980Z,409.50
2019-02-10T04:07:22.969Z,409.69
2019-02-10T04:08:22.982Z,410.11
2019-02-10T04:09:22.979Z,411.18
2019-02-10T04:10:22.922Z,410.84
2019-02-10T04:11:22.941Z,410.20
2019-02-10T04:12:22.907Z,411.29
2019-02-10T04:13:22.894Z,411.21
2019-02-10T04:14:22.893Z,410.65
2019-02-10T04:15:22.910Z,410.47
2019-02-10T04:16:22.873Z,410.87
2019-02-10T04:17:22.870Z,409.98
2019-02-10T04:18:22.858Z,411.82
2019-02-10T04:19:22.832Z,409.29
2019-02-10T04:20:22.826Z,409.47
2019-02-10T04:21:22.815Z,410.00
2019-02-10T04:22:22.816Z,412.20
2019-02-10T04:23:22.793Z,410.87
2019-02-10T04:24:22.775Z,411.38
2019-02-10T04:25:22.760Z,411.95
2019-02-10T04:26:22.775Z,409.53
2019-02-10T04:27:22.749Z,411.21
2019-02-10T04:28:22.740Z,410.86
2019-02-10T04:29:22.714Z,412.28
2019-02-10T04:30:22.724Z,410.05
2019-02-10T04:31:22.734Z,410.93
2019-02-10T04:32:22.697Z,412.11
2019-02-10T04:33:22.692Z,410.53
2019-02-10T04:34:22.656Z,410.54
2019-02-10T04:35:22.651Z,410.71
2019-02-10T04:36:22.633Z,411.04
2019-02-10T04:37:22.642Z,412.26
2019-02-10T04:38:22.635Z,411.04
2019-02-10T04:39:22.613Z,409.92
2019-02-10T04:40:22.603Z,412.72
2019-02-10T04:41:22.599Z,411.38
2019-02-10T04:42:22.600Z,412.01
2019-02-10T04:43:22.574Z,409.83
2019-02-10T04:44:22.575Z,411.03
2019-02-10T04:45:22.548Z,410.69
2019-02-10T04:46:22.530Z,411.03
2019-02-10T04:47:22.539Z,409.94
2019-02-10T04:48:22.540Z,411.33
2019-02-10T04:49:22.504Z,411.30
2019-02-10T04:50:22.492Z,411.61
2019-02-10T04:51:22.486Z,410.46
2019-02-10T04:52:22.471Z,411.59
2019-02-10T04:53:22.472Z,410.65
2019-02-10T04:54:22.482Z,410.04
2019-02-10T04:55:22.434Z,409.78
2019-02-10T04:56:22.418Z,411.56
2019-02-10T04:57:22.416Z,410.92
2019-02-10T04:58:22.407Z,409.81
2019-02-10T04:59:22.399Z,410.08
2019-02-10T05:00:22.396Z,410.47
2019-02-10T05:01:22.377Z,413.43
2019-02-10T05:02:22.366Z,410.80
2019-02-10T05:03:22.351Z,410.23
2019-02-10T05:04:22.365Z,410.23
2019-02-10T05:05:22.442Z,412.16
2019-02-10T05:06:22.339Z,410.58
2019-02-10T05:07:22.303Z,411.05
2019-02-10T05:08:22.286Z,411.15
2019-02-10T05:09:22.310Z,410.42
2019-02-10T05:10:22.282Z,410.30
2019-02-10T05:11:22.286Z,410.19
2019-02-10T05:12:22.265Z,411.05
2019-02-10T05:13:22.242Z,410.95
2019-02-10T05:14:22.229Z,411.44
2019-02-10T05:15:22.209Z,410.33
2019-02-10T05:16:22.249Z,410.40
2019-02-10T05:17:22.213Z,410.91
2019-02-10T05:18:22.185Z,410.92
2019-02-10T05:19:22.188Z,411.29
2019-02-10T05:20:22.175Z,411.39
2019-02-10T05:21:22.148Z,410.02
2019-02-10T05:22:22.172Z,409.56
2019-02-10T05:23:22.138Z,410.76
2019-02-10T05:24:22.134Z,411.17
2019-02-10T05:25:22.120Z,411.06
2019-02-10T05:26:22.097Z,410.80
2019-02-10T05:27:22.107Z,409.99
2019-02-10T05:28:22.079Z,409.67
2019-02-10T05:29:22.067Z,411.50
2019-02-10T05:30:22.066Z,411.72
2019-02-10T05:31:22.046Z,410.19
2019-02-10T05:32:22.063Z,410.76
2019-02-10T05:33:22.023Z,411.53
2019-02-10T05:34:22.018Z,410.87
2019-02-10T05:35:22.011Z,411.22
2019-02-10T05:36:21.990Z,411.67
2019-02-10T05:37:21.987Z,410.14
2019-02-10T05:38:21.995Z,409.33
2019-02-10T05:39:21.959Z,410.95
2019-02-10T05:40:21.941Z,411.10
2019-02-10T05:41:21.951Z,411.39
2019-02-10T05:42:21.924Z,411.41
2019-02-10T05:43:21.950Z,410.92
2019-02-10T05:44:21.906Z,411.82
2019-02-10T05:45:21.946Z,411.61
2019-02-10T05:46:21.874Z,411.08
2019-02-10T05:47:21.878Z,411.65
2019-02-10T05:48:21.872Z,410.28
2019-02-10T05:49:21.883Z,410.93
2019-02-10T05:50:21.836Z,410.83
2019-02-10T05:51:21.822Z,410.47
2019-02-10T05:52:21.816Z,410.86
2019-02-10T05:53:21.798Z,410.95
2019-02-10T05:54:21.799Z,410.92
2019-02-10T05:55:21.818Z,410.87
2019-02-10T05:56:21.777Z,410.89
2019-02-10T05:57:21.768Z,411.44
2019-02-10T05:58:21.743Z,411.30
2019-02-10T05:59:21.733Z,411.63
2019-02-10T06:00:21.745Z,409.92
2019-02-10T06:01:21.735Z,411.00
2019-02-10T06:02:21.712Z,411.30
2019-02-10T06:03:21.708Z,410.95
2019-02-10T06:04:21.688Z,411.05
2019-02-10T06:05:21.698Z,410.38
2019-02-10T06:06:21.692Z,410.83
2019-02-10T06:07:21.657Z,411.42
2019-02-10T06:08:21.656Z,411.52
2019-02-10T06:09:21.648Z,411.27
2019-02-10T06:10:21.617Z,411.21
2019-02-10T06:11:21.629Z,410.92
2019-02-10T06:12:21.597Z,410.51
2019-02-10T06:13:21.581Z,411.61
2019-02-10T06:14:21.589Z,409.87
2019-02-10T06:15:21.567Z,411.10
2019-02-10T06:16:21.577Z,410.64
2019-02-10T06:17:21.577Z,411.15
2019-02-10T06:18:21.524Z,411.23
2019-02-10T06:19:21.515Z,411.61
2019-02-10T06:20:21.522Z,410.47
2019-02-10T06:21:21.504Z,411.01
2019-02-10T06:22:21.495Z,410.80
2019-02-10T06:23:21.506Z,410.77
2019-02-10T06:24:21.475Z,411.38
2019-02-10T06:25:21.484Z,410.36
2019-02-10T06:26:21.462Z,411.99
2019-02-10T06:27:21.439Z,410.66
2019-02-10T06:28:21.429Z,411.25
2019-02-10T06:29:21.445Z,409.60
2019-02-10T06:30:21.398Z,410.45
2019-02-10T06:31:21.389Z,410.91
2019-02-10T06:32:21.370Z,410.38
2019-02-10T06:33:21.382Z,411.69
2019-02-10T06:34:21.356Z,410.42
2019-02-10T06:35:21.375Z,410.90
2019-02-10T06:36:21.330Z,411.31
2019-02-10T06:37:21.319Z,410.94
2019-02-10T06:38:22.739Z,411.00
2019-02-10T06:39:21.308Z,411.10
2019-02-10T06:40:21.318Z,411.35
2019-02-10T06:41:21.287Z,411.27
2019-02-10T06:42:21.264Z,409.65
2019-02-10T06:43:21.265Z,410.24
2019-02-10T06:44:21.246Z,411.23
2019-02-10T06:45:21.257Z,411.90
2019-02-10T06:46:21.238Z,410.16
2019-02-10T06:47:21.238Z,410.91
2019-02-10T06:48:21.206Z,410.46
2019-02-10T06:49:21.207Z,410.10
2019-02-10T06:50:21.196Z,411.25
2019-02-10T06:51:21.205Z,410.33
2019-02-10T06:52:21.162Z,411.60
2019-02-10T06:53:21.158Z,410.13
2019-02-10T06:54:21.135Z,411.11
2019-02-10T06:55:21.119Z,410.17
2019-02-10T06:56:21.139Z,411.70
2019-02-10T06:57:21.113Z,411.74
2019-02-10T06:58:21.107Z,411.10
2019-02-10T06:59:21.096Z,410.79
2019-02-10T07:00:21.095Z,410.73
2019-02-10T07:01:21.095Z,411.74
2019-02-10T07:02:21.047Z,410.70
2019-02-10T07:03:21.045Z,410.46
2019-02-10T07:04:21.026Z,410.72
2019-02-10T07:05:21.014Z,410.83
2019-02-10T07:06:21.045Z,411.50
2019-02-10T07:07:21.002Z,411.11
2019-02-10T07:08:20.984Z,410.93
2019-02-10T07:09:20.967Z,411.70
2019-02-10T07:10:20.988Z,411.97
2019-02-10T07:11:20.962Z,411.26
2019-02-10T07:12:20.967Z,411.46
2019-02-10T07:13:20.929Z,411.20
2019-02-10T07:14:20.910Z,410.48
2019-02-10T07:15:20.954Z,412.09
2019-02-10T07:16:20.895Z,411.42
2019-02-10T07:17:20.932Z,411.42
2019-02-10T07:18:20.881Z,411.66
2019-02-10T07:19:20.899Z,411.76
2019-02-10T07:20:20.863Z,411.19
2019-02-10T07:21:21.169Z,411.00
2019-02-10T07:22:20.904Z,410.11
2019-02-10T07:23:20.818Z,410.96
2019-02-10T07:24:20.812Z,410.46
2019-02-10T07:25:20.805Z,410.60
2019-02-10T07:26:20.786Z,410.57
2019-02-10T07:27:20.809Z,411.66
2019-02-10T07:28:20.788Z,411.88
2019-02-10T07:29:20.763Z,411.80
2019-02-10T07:30:20.765Z,412.10
2019-02-10T07:31:20.809Z,411.94
2019-02-10T07:32:20.722Z,411.83
2019-02-10T07:33:20.731Z,411.90
2019-02-10T07:34:20.689Z,412.47
2019-02-10T07:35:20.693Z,412.47
2019-02-10T07:36:20.687Z,412.82
2019-02-10T07:37:20.672Z,411.51
2019-02-10T07:38:20.686Z,411.41
2019-02-10T07:39:20.656Z,411.84
2019-02-10T07:40:20.654Z,412.60
2019-02-10T07:41:20.662Z,412.36
2019-02-10T07:42:20.620Z,412.36
2019-02-10T07:43:20.657Z,411.35
2019-02-10T07:44:20.594Z,410.58
2019-02-10T07:45:20.584Z,412.35
2019-02-10T07:46:20.569Z,411.67
2019-02-10T07:47:20.550Z,412.06
2019-02-10T07:48:20.554Z,411.51
2019-02-10T07:49:20.555Z,411.46
2019-02-10T07:50:20.527Z,411.72
2019-02-10T07:51:20.522Z,411.50
2019-02-10T07:52:20.513Z,411.94
2019-02-10T07:53:20.499Z,411.98
2019-02-10T07:54:20.512Z,411.82
2019-02-10T07:55:20.473Z,411.35
2019-02-10T07:56:20.471Z,411.98
2019-02-10T07:57:20.454Z,410.85
2019-02-10T07:58:20.441Z,411.91
2019-02-10T07:59:20.431Z,411.98
2019-02-10T08:00:20.434Z,411.33
2019-02-10T08:01:20.475Z,411.00
2019-02-10T08:02:20.396Z,411.89
2019-02-10T08:03:20.382Z,411.85
2019-02-10T08:04:20.384Z,411.13
2019-02-10T08:05:20.390Z,411.20
2019-02-10T08:06:20.416Z,410.29
2019-02-10T08:07:20.337Z,412.01
2019-02-10T08:08:20.319Z,411.03
2019-02-10T08:09:20.314Z,410.76
2019-02-10T08:10:20.309Z,412.15
2019-02-10T08:11:20.299Z,412.44
2019-02-10T08:12:20.304Z,410.98
2019-02-10T08:13:20.271Z,411.95
2019-02-10T08:14:20.270Z,411.02
2019-02-10T08:15:20.261Z,411.65
2019-02-10T08:16:20.275Z,411.32
2019-02-10T08:17:20.259Z,412.83
2019-02-10T08:18:20.221Z,411.55
2019-02-10T08:19:20.213Z,412.36
2019-02-10T08:20:20.190Z,410.77
2019-02-10T08:21:20.223Z,411.04
2019-02-10T08:22:20.177Z,411.72
2019-02-10T08:23:20.182Z,411.23
2019-02-10T08:24:20.162Z,412.08
2019-02-10T08:25:20.151Z,412.23
2019-02-10T08:26:20.133Z,411.89
2019-02-10T08:27:20.134Z,411.59
2019-02-10T08:28:20.124Z,412.91
2019-02-10T08:29:20.114Z,411.05
2019-02-10T08:30:20.093Z,412.24
2019-02-10T08:31:20.076Z,412.53
2019-02-10T08:32:20.089Z,411.35
2019-02-10T08:33:20.063Z,410.80
2019-02-10T08:34:20.050Z,411.48
2019-02-10T08:35:20.038Z,412.05
2019-02-10T08:36:20.018Z,412.84
2019-02-10T08:37:20.030Z,411.92
2019-02-10T08:38:20.006Z,412.05
2019-02-10T08:39:19.990Z,412.12
2019-02-10T08:40:19.999Z,412.66
2019-02-10T08:41:19.981Z,414.21
2019-02-10T08:42:19.952Z,413.34
2019-02-10T08:43:19.968Z,414.74
2019-02-10T08:44:19.961Z,413.27
2019-02-10T08:45:19.927Z,413.93
2019-02-10T08:46:19.914Z,413.87
2019-02-10T08:47:19.902Z,413.79
2019-02-10T08:48:19.886Z,414.43
2019-02-10T08:49:19.901Z,414.88
2019-02-10T08:50:19.900Z,413.79
2019-02-10T08:51:19.858Z,413.53
2019-02-10T08:52:19.884Z,414.47
2019-02-10T08:53:19.862Z,414.85
2019-02-10T08:54:19.825Z,415.27
2019-02-10T08:55:19.812Z,415.14
2019-02-10T08:56:19.797Z,416.15
2019-02-10T08:57:19.816Z,416.54
2019-02-10T08:58:19.787Z,416.83
2019-02-10T08:59:19.776Z,416.68
2019-02-10T09:00:19.763Z,415.97
2019-02-10T09:01:19.745Z,415.49
2019-02-10T09:02:19.787Z,415.28
2019-02-10T09:03:19.995Z,416.28
2019-02-10T09:04:19.718Z,415.36
2019-02-10T09:05:19.714Z,415.58
2019-02-10T09:06:19.688Z,415.21
2019-02-10T09:07:19.678Z,415.51
2019-02-10T09:08:19.702Z,415.11
2019-02-10T09:09:19.694Z,415.25
2019-02-10T09:10:19.653Z,415.29
2019-02-10T09:11:19.649Z,415.64
2019-02-10T09:12:19.706Z,415.05
2019-02-10T09:13:19.625Z,415.60
2019-02-10T09:14:19.598Z,414.28
2019-02-10T09:15:19.613Z,415.77
2019-02-10T09:16:19.591Z,415.92
2019-02-10T09:17:19.582Z,415.81
2019-02-10T09:18:19.557Z,416.40
2019-02-10T09:19:20.601Z,416.09
2019-02-10T09:20:19.536Z,415.38
2019-02-10T09:21:19.553Z,415.70
2019-02-10T09:22:19.522Z,414.42
2019-02-10T09:23:19.517Z,415.14
2019-02-10T09:24:19.557Z,414.94
2019-02-10T09:25:19.493Z,415.04
2019-02-10T09:26:19.480Z,415.09
2019-02-10T09:27:19.462Z,415.74
2019-02-10T09:28:19.457Z,414.47
2019-02-10T09:29:19.439Z,414.20
2019-02-10T09:30:19.466Z,415.15
2019-02-10T09:31:19.419Z,415.54
2019-02-10T09:32:19.413Z,415.46
2019-02-10T09:33:19.393Z,415.79
2019-02-10T09:34:19.393Z,415.41
2019-02-10T09:35:19.384Z,415.08
2019-02-10T09:36:19.390Z,415.14
2019-02-10T09:37:19.360Z,413.59
2019-02-10T09:38:19.345Z,414.87
2019-02-10T09:39:19.326Z,414.23
2019-02-10T09:40:19.318Z,415.23
2019-02-10T09:41:19.335Z,414.85
2019-02-10T09:42:19.309Z,415.07
2019-02-10T09:43:19.302Z,414.72
2019-02-10T09:44:19.284Z,414.30
2019-02-10T09:45:19.269Z,413.83
2019-02-10T09:46:19.260Z,415.00
2019-02-10T09:47:19.260Z,414.03
2019-02-10T09:48:19.236Z,414.57
2019-02-10T09:49:19.237Z,414.35
2019-02-10T09:50:19.220Z,414.24
2019-02-10T09:51:19.200Z,413.43
2019-02-10T09:52:19.222Z,413.86
2019-02-10T09:53:19.188Z,413.93
2019-02-10T09:54:19.176Z,413.84
2019-02-10T09:55:19.166Z,414.99
2019-02-10T09:56:19.158Z,413.88
2019-02-10T09:57:19.144Z,413.52
2019-02-10T09:58:19.147Z,414.69
2019-02-10T09:59:19.114Z,414.10
2019-02-10T10:00:19.099Z,412.89
2019-02-10T10:01:19.086Z,413.94
2019-02-10T10:02:19.111Z,414.70
2019-02-10T10:03:19.073Z,412.83
2019-02-10T10:04:19.053Z,414.14
2019-02-10T10:05:19.053Z,414.43
2019-02-10T10:06:19.038Z,414.77
2019-02-10T10:07:19.044Z,413.88
2019-02-10T10:08:19.021Z,413.86
2019-02-10T10:09:19.799Z,414.28
2019-02-10T10:10:18.994Z,414.27
2019-02-10T10:11:18.998Z,415.67
2019-02-10T10:12:19.002Z,414.23
2019-02-10T10:13:18.955Z,413.87
2019-02-10T10:14:19.788Z,413.93
2019-02-10T10:15:18.944Z,414.88
2019-02-10T10:16:18.937Z,414.84
2019-02-10T10:17:18.920Z,413.32
2019-02-10T10:18:18.944Z,413.92
2019-02-10T10:19:18.887Z,414.93
2019-02-10T10:20:18.894Z,414.63
2019-02-10T10:21:18.879Z,414.10
2019-02-10T10:22:18.863Z,413.76
2019-02-10T10:23:18.881Z,414.23
2019-02-10T10:24:18.838Z,412.49
2019-02-10T10:25:18.832Z,413.70
2019-02-10T10:26:18.822Z,414.33
2019-02-10T10:27:18.822Z,413.97
2019-02-10T10:28:18.821Z,414.50
2019-02-10T10:29:18.786Z,413.44
2019-02-10T10:30:18.773Z,414.17
2019-02-10T10:31:18.758Z,413.02
2019-02-10T10:32:18.748Z,414.07
2019-02-10T10:33:18.760Z,414.12
2019-02-10T10:34:18.741Z,413.97
2019-02-10T10:35:18.733Z,414.87
2019-02-10T10:36:18.709Z,414.04
2019-02-10T10:37:18.706Z,413.77
2019-02-10T10:38:18.729Z,414.35
2019-02-10T10:39:18.682Z,414.47
2019-02-10T10:40:18.676Z,414.87
2019-02-10T10:41:18.662Z,412.94
2019-02-10T10:42:18.648Z,413.00
2019-02-10T10:43:18.649Z,414.98
2019-02-10T10:44:18.632Z,414.66
2019-02-10T10:45:18.606Z,413.34
2019-02-10T10:46:18.603Z,413.54
2019-02-10T10:47:18.595Z,415.04
2019-02-10T10:48:18.609Z,414.88
2019-02-10T10:49:18.571Z,414.96
2019-02-10T10:50:18.553Z,415.31
2019-02-10T10:51:18.542Z,414.78
2019-02-10T10:52:18.564Z,414.05
2019-02-10T10:53:18.561Z,414.84
2019-02-10T10:54:18.515Z,414.11
2019-02-10T10:55:18.501Z,414.24
2019-02-10T10:56:18.493Z,413.92
2019-02-10T10:57:18.479Z,414.83
2019-02-10T10:58:18.497Z,414.89
2019-02-10T10:59:18.503Z,414.59
2019-02-10T11:00:18.457Z,414.07
2019-02-10T11:01:25.227Z,414.49
2019-02-10T11:02:19.422Z,413.88
2019-02-10T11:03:18.433Z,414.60
2019-02-10T11:04:18.412Z,413.51
2019-02-10T11:05:18.386Z,413.76
2019-02-10T11:06:18.407Z,413.93
2019-02-10T11:07:18.372Z,414.20
2019-02-10T11:08:18.375Z,414.67
2019-02-10T11:09:18.347Z,414.39
2019-02-10T11:10:18.354Z,414.36
2019-02-10T11:11:18.328Z,415.05
2019-02-10T11:12:18.362Z,415.96
2019-02-10T11:13:18.337Z,414.24
2019-02-10T11:14:18.297Z,416.31
2019-02-10T11:15:18.288Z,413.85
2019-02-10T11:16:18.271Z,415.35
2019-02-10T11:17:18.254Z,415.43
2019-02-10T11:18:18.301Z,416.64
2019-02-10T11:19:18.260Z,415.18
2019-02-10T11:20:18.239Z,416.10
2019-02-10T11:21:18.224Z,414.94
2019-02-10T11:22:18.227Z,415.49
2019-02-10T11:23:18.194Z,415.89
2019-02-10T11:24:18.224Z,415.82
2019-02-10T11:25:18.213Z,414.86
2019-02-10T11:26:18.177Z,415.57
2019-02-10T11:27:18.145Z,415.03
2019-02-10T11:28:18.140Z,415.32
2019-02-10T11:29:18.126Z,414.88
2019-02-10T11:30:18.116Z,416.07
2019-02-10T11:31:18.129Z,415.21
2019-02-10T11:32:18.106Z,414.26
2019-02-10T11:33:18.088Z,414.39
2019-02-10T11:34:18.069Z,415.03
2019-02-10T11:35:18.087Z,414.40
2019-02-10T11:36:18.050Z,415.70
2019-02-10T11:37:18.067Z,414.51
2019-02-10T11:38:18.040Z,414.69
2019-02-10T11:39:18.027Z,414.83
2019-02-10T11:40:18.020Z,414.44
2019-02-10T11:41:18.025Z,414.05
2019-02-10T11:42:17.991Z,414.65
2019-02-10T11:43:17.989Z,414.57
2019-02-10T11:44:17.967Z,415.31
2019-02-10T11:45:17.957Z,414.21
2019-02-10T11:46:17.968Z,413.50
2019-02-10T11:47:17.925Z,414.69
2019-02-10T11:48:17.935Z,413.53
2019-02-10T11:49:17.914Z,414.65
2019-02-10T11:50:17.901Z,415.19
2019-02-10T11:51:17.914Z,413.68
2019-02-10T11:52:17.892Z,414.71
2019-02-10T11:53:17.915Z,414.80
2019-02-10T11:54:17.869Z,414.23
2019-02-10T11:55:17.848Z,413.93
2019-02-10T11:56:17.845Z,415.13
2019-02-10T11:57:17.828Z,415.72
2019-02-10T11:58:17.849Z,415.52
2019-02-10T11:59:17.809Z,415.21
2019-02-10T12:00:17.789Z,415.05
2019-02-10T12:01:17.777Z,415.09
2019-02-10T12:02:17.788Z,414.69
2019-02-10T12:03:17.761Z,415.75
2019-02-10T12:04:17.778Z,415.22
2019-02-10T12:05:17.741Z,414.65
2019-02-10T12:06:17.750Z,414.95
2019-02-10T12:07:17.706Z,413.44
2019-02-10T12:08:17.701Z,415.43
2019-02-10T12:09:17.689Z,414.60
2019-02-10T12:10:17.685Z,414.78
2019-02-10T12:11:17.679Z,414.34
2019-02-10T12:12:17.681Z,414.14
2019-02-10T12:13:17.643Z,414.55
2019-02-10T12:14:17.655Z,415.07
2019-02-10T12:15:17.633Z,414.01
2019-02-10T12:16:17.654Z,414.38
2019-02-10T12:17:17.612Z,414.19
2019-02-10T12:18:17.583Z,413.85
2019-02-10T12:19:17.582Z,414.25
2019-02-10T12:20:17.597Z,413.81
2019-02-10T12:21:17.594Z,414.46
2019-02-10T12:22:17.553Z,413.87
2019-02-10T12:23:17.541Z,413.64
2019-02-10T12:24:17.554Z,414.53
2019-02-10T12:25:17.520Z,414.07
2019-02-10T12:26:17.494Z,414.73
2019-02-10T12:27:17.524Z,414.39
2019-02-10T12:28:17.501Z,414.21